sensor_id;sensor_type;location;lat;lon;timestamp;P1;durP1;ratioP1;P2;durP2;ratioP2
69627;SDS011;56850;51.984;5.088;2023-01-13T00:01:20;30.05;;;4.22;;
69627;SDS011;56850;51.984;5.088;2023-01-13T00:03:49;26.40;;;3.95;;
69627;SDS011;56850;51.984;5.088;2023-01-13T00:06:20;22.88;;;3.85;;
69627;SDS011;56850;51.984;5.088;2023-01-13T00:08:51;33.30;;;4.07;;
69627;SDS011;56850;51.984;5.088;2023-01-13T00:11:19;30.48;;;4.47;;
69627;SDS011;56850;51.984;5.088;2023-01-13T00:13:47;24.58;;;4.65;;
69627;SDS011;56850;51.984;5.088;2023-01-13T00:16:15;21.50;;;4.72;;
69627;SDS011;56850;51.984;5.088;2023-01-13T00:18:43;24.55;;;4.15;;
69627;SDS011;56850;51.984;5.088;2023-01-13T00:21:14;23.90;;;3.63;;
69627;SDS011;56850;51.984;5.088;2023-01-13T00:23:44;29.70;;;4.05;;
69627;SDS011;56850;51.984;5.088;2023-01-13T00:26:32;21.45;;;3.92;;
69627;SDS011;56850;51.984;5.088;2023-01-13T00:29:01;24.48;;;3.80;;
69627;SDS011;56850;51.984;5.088;2023-01-13T00:31:29;26.67;;;4.40;;
69627;SDS011;56850;51.984;5.088;2023-01-13T00:33:57;27.00;;;3.03;;
69627;SDS011;56850;51.984;5.088;2023-01-13T00:36:25;35.13;;;4.47;;
69627;SDS011;56850;51.984;5.088;2023-01-13T00:38:53;28.65;;;5.28;;
69627;SDS011;56850;51.984;5.088;2023-01-13T00:41:20;25.25;;;3.55;;
69627;SDS011;56850;51.984;5.088;2023-01-13T00:43:49;26.98;;;4.63;;
69627;SDS011;56850;51.984;5.088;2023-01-13T00:46:19;30.37;;;3.77;;
69627;SDS011;56850;51.984;5.088;2023-01-13T00:48:47;30.33;;;4.32;;
69627;SDS011;56850;51.984;5.088;2023-01-13T00:51:15;18.30;;;3.58;;
69627;SDS011;56850;51.984;5.088;2023-01-13T00:53:45;32.25;;;3.88;;
69627;SDS011;56850;51.984;5.088;2023-01-13T00:56:15;22.40;;;3.28;;
69627;SDS011;56850;51.984;5.088;2023-01-13T00:58:49;23.00;;;4.07;;
69627;SDS011;56850;51.984;5.088;2023-01-13T01:01:22;21.73;;;3.08;;
69627;SDS011;56850;51.984;5.088;2023-01-13T01:03:50;27.35;;;3.60;;
69627;SDS011;56850;51.984;5.088;2023-01-13T01:06:19;30.15;;;3.65;;
69627;SDS011;56850;51.984;5.088;2023-01-13T01:08:48;23.00;;;4.15;;
69627;SDS011;56850;51.984;5.088;2023-01-13T01:11:16;20.50;;;3.40;;
69627;SDS011;56850;51.984;5.088;2023-01-13T01:13:45;24.15;;;3.40;;
69627;SDS011;56850;51.984;5.088;2023-01-13T01:16:14;24.60;;;4.00;;
69627;SDS011;56850;51.984;5.088;2023-01-13T01:18:43;24.73;;;3.60;;
69627;SDS011;56850;51.984;5.088;2023-01-13T01:21:11;27.70;;;3.83;;
69627;SDS011;56850;51.984;5.088;2023-01-13T01:23:39;23.07;;;4.43;;
69627;SDS011;56850;51.984;5.088;2023-01-13T01:26:09;27.13;;;4.50;;
69627;SDS011;56850;51.984;5.088;2023-01-13T01:28:41;25.33;;;4.05;;
69627;SDS011;56850;51.984;5.088;2023-01-13T01:31:13;29.55;;;3.83;;
69627;SDS011;56850;51.984;5.088;2023-01-13T01:33:41;32.40;;;4.28;;
69627;SDS011;56850;51.984;5.088;2023-01-13T01:36:09;30.20;;;3.73;;
69627;SDS011;56850;51.984;5.088;2023-01-13T01:38:37;29.30;;;3.63;;
69627;SDS011;56850;51.984;5.088;2023-01-13T01:41:05;19.35;;;3.85;;
69627;SDS011;56850;51.984;5.088;2023-01-13T01:49:17;27.20;;;4.80;;
69627;SDS011;56850;51.984;5.088;2023-01-13T01:54:51;29.23;;;5.03;;
69627;SDS011;56850;51.984;5.088;2023-01-13T01:57:26;25.63;;;4.22;;
69627;SDS011;56850;51.984;5.088;2023-01-13T02:00:01;29.27;;;3.83;;
69627;SDS011;56850;51.984;5.088;2023-01-13T02:02:37;28.63;;;4.13;;
69627;SDS011;56850;51.984;5.088;2023-01-13T02:05:07;31.55;;;4.07;;
69627;SDS011;56850;51.984;5.088;2023-01-13T02:07:34;25.00;;;4.32;;
69627;SDS011;56850;51.984;5.088;2023-01-13T02:10:05;33.63;;;4.45;;
69627;SDS011;56850;51.984;5.088;2023-01-13T02:12:34;24.60;;;3.90;;
69627;SDS011;56850;51.984;5.088;2023-01-13T02:15:09;32.53;;;5.20;;
69627;SDS011;56850;51.984;5.088;2023-01-13T02:17:44;28.48;;;4.07;;
69627;SDS011;56850;51.984;5.088;2023-01-13T02:32:21;22.17;;;3.53;;
69627;SDS011;56850;51.984;5.088;2023-01-13T02:37:34;23.48;;;3.47;;
69627;SDS011;56850;51.984;5.088;2023-01-13T02:42:44;22.90;;;4.03;;
69627;SDS011;56850;51.984;5.088;2023-01-13T02:45:51;24.50;;;4.13;;
69627;SDS011;56850;51.984;5.088;2023-01-13T02:48:35;31.55;;;4.13;;
69627;SDS011;56850;51.984;5.088;2023-01-13T02:51:06;31.73;;;5.32;;
69627;SDS011;56850;51.984;5.088;2023-01-13T02:53:42;25.27;;;4.03;;
69627;SDS011;56850;51.984;5.088;2023-01-13T02:56:18;28.10;;;4.20;;
69627;SDS011;56850;51.984;5.088;2023-01-13T02:58:48;23.25;;;4.00;;
69627;SDS011;56850;51.984;5.088;2023-01-13T03:01:16;31.65;;;4.57;;
69627;SDS011;56850;51.984;5.088;2023-01-13T03:03:44;29.92;;;3.95;;
69627;SDS011;56850;51.984;5.088;2023-01-13T03:08:48;33.70;;;3.83;;
69627;SDS011;56850;51.984;5.088;2023-01-13T03:11:20;22.30;;;3.55;;
69627;SDS011;56850;51.984;5.088;2023-01-13T03:19:24;29.85;;;3.92;;
69627;SDS011;56850;51.984;5.088;2023-01-13T03:22:24;26.47;;;3.47;;
69627;SDS011;56850;51.984;5.088;2023-01-13T03:24:54;29.17;;;3.67;;
69627;SDS011;56850;51.984;5.088;2023-01-13T03:28:05;19.60;;;3.60;;
69627;SDS011;56850;51.984;5.088;2023-01-13T03:30:39;29.63;;;3.42;;
69627;SDS011;56850;51.984;5.088;2023-01-13T03:33:12;17.10;;;3.45;;
69627;SDS011;56850;51.984;5.088;2023-01-13T03:35:43;19.87;;;3.23;;
69627;SDS011;56850;51.984;5.088;2023-01-13T03:38:15;17.15;;;2.85;;
69627;SDS011;56850;51.984;5.088;2023-01-13T03:40:49;17.95;;;3.05;;
69627;SDS011;56850;51.984;5.088;2023-01-13T03:43:22;21.30;;;3.22;;
69627;SDS011;56850;51.984;5.088;2023-01-13T03:46:17;22.83;;;3.58;;
69627;SDS011;56850;51.984;5.088;2023-01-13T03:48:49;24.90;;;3.20;;
69627;SDS011;56850;51.984;5.088;2023-01-13T03:51:20;20.95;;;2.72;;
69627;SDS011;56850;51.984;5.088;2023-01-13T03:54:09;12.20;;;2.63;;
69627;SDS011;56850;51.984;5.088;2023-01-13T03:56:40;17.00;;;2.45;;
69627;SDS011;56850;51.984;5.088;2023-01-13T03:59:12;17.98;;;2.78;;
69627;SDS011;56850;51.984;5.088;2023-01-13T04:01:49;10.20;;;2.40;;
69627;SDS011;56850;51.984;5.088;2023-01-13T04:04:38;12.88;;;2.20;;
69627;SDS011;56850;51.984;5.088;2023-01-13T04:10:05;18.83;;;2.35;;
69627;SDS011;56850;51.984;5.088;2023-01-13T04:12:37;14.45;;;2.40;;
69627;SDS011;56850;51.984;5.088;2023-01-13T04:15:38;6.03;;;1.70;;
69627;SDS011;56850;51.984;5.088;2023-01-13T04:18:12;11.00;;;2.40;;
69627;SDS011;56850;51.984;5.088;2023-01-13T04:20:43;7.55;;;1.50;;
69627;SDS011;56850;51.984;5.088;2023-01-13T04:23:11;10.38;;;2.10;;
69627;SDS011;56850;51.984;5.088;2023-01-13T04:25:39;11.10;;;1.70;;
69627;SDS011;56850;51.984;5.088;2023-01-13T04:28:07;7.57;;;1.70;;
69627;SDS011;56850;51.984;5.088;2023-01-13T04:30:35;10.70;;;1.73;;
69627;SDS011;56850;51.984;5.088;2023-01-13T04:33:02;11.35;;;1.90;;
69627;SDS011;56850;51.984;5.088;2023-01-13T04:35:31;7.47;;;1.98;;
69627;SDS011;56850;51.984;5.088;2023-01-13T04:38:20;7.32;;;1.83;;
69627;SDS011;56850;51.984;5.088;2023-01-13T04:40:47;9.07;;;1.90;;
69627;SDS011;56850;51.984;5.088;2023-01-13T04:43:14;11.60;;;1.88;;
69627;SDS011;56850;51.984;5.088;2023-01-13T04:45:41;10.23;;;1.73;;
69627;SDS011;56850;51.984;5.088;2023-01-13T04:48:09;11.85;;;1.75;;
69627;SDS011;56850;51.984;5.088;2023-01-13T04:50:36;11.82;;;2.15;;
69627;SDS011;56850;51.984;5.088;2023-01-13T04:53:03;13.47;;;2.97;;
69627;SDS011;56850;51.984;5.088;2023-01-13T04:55:31;10.30;;;2.15;;
69627;SDS011;56850;51.984;5.088;2023-01-13T04:58:00;9.57;;;1.90;;
69627;SDS011;56850;51.984;5.088;2023-01-13T05:00:31;14.75;;;2.15;;
69627;SDS011;56850;51.984;5.088;2023-01-13T05:02:59;12.45;;;2.13;;
69627;SDS011;56850;51.984;5.088;2023-01-13T05:05:27;12.83;;;2.10;;
69627;SDS011;56850;51.984;5.088;2023-01-13T05:07:56;17.73;;;2.20;;
69627;SDS011;56850;51.984;5.088;2023-01-13T05:10:23;10.95;;;2.13;;
69627;SDS011;56850;51.984;5.088;2023-01-13T05:12:50;16.20;;;2.53;;
69627;SDS011;56850;51.984;5.088;2023-01-13T05:15:37;10.73;;;2.40;;
69627;SDS011;56850;51.984;5.088;2023-01-13T05:18:24;11.50;;;2.57;;
69627;SDS011;56850;51.984;5.088;2023-01-13T05:20:52;11.55;;;2.40;;
69627;SDS011;56850;51.984;5.088;2023-01-13T05:23:19;8.90;;;2.45;;
69627;SDS011;56850;51.984;5.088;2023-01-13T05:26:05;12.27;;;2.33;;
69627;SDS011;56850;51.984;5.088;2023-01-13T05:28:32;11.65;;;2.50;;
69627;SDS011;56850;51.984;5.088;2023-01-13T05:31:00;12.27;;;2.57;;
69627;SDS011;56850;51.984;5.088;2023-01-13T05:33:27;12.48;;;2.35;;
69627;SDS011;56850;51.984;5.088;2023-01-13T05:35:54;14.23;;;3.33;;
69627;SDS011;56850;51.984;5.088;2023-01-13T05:38:21;15.82;;;2.60;;
69627;SDS011;56850;51.984;5.088;2023-01-13T05:40:48;12.98;;;2.40;;
69627;SDS011;56850;51.984;5.088;2023-01-13T05:43:34;16.20;;;3.20;;
69627;SDS011;56850;51.984;5.088;2023-01-13T05:46:02;12.98;;;2.10;;
69627;SDS011;56850;51.984;5.088;2023-01-13T05:48:32;12.18;;;2.53;;
69627;SDS011;56850;51.984;5.088;2023-01-13T05:51:00;15.82;;;3.15;;
69627;SDS011;56850;51.984;5.088;2023-01-13T05:53:29;11.88;;;2.95;;
69627;SDS011;56850;51.984;5.088;2023-01-13T05:55:57;18.23;;;2.43;;
69627;SDS011;56850;51.984;5.088;2023-01-13T05:58:25;14.10;;;2.13;;
69627;SDS011;56850;51.984;5.088;2023-01-13T06:00:57;13.30;;;3.08;;
69627;SDS011;56850;51.984;5.088;2023-01-13T06:03:29;18.13;;;2.78;;
69627;SDS011;56850;51.984;5.088;2023-01-13T06:05:56;15.32;;;2.78;;
69627;SDS011;56850;51.984;5.088;2023-01-13T06:08:29;20.00;;;2.40;;
69627;SDS011;56850;51.984;5.088;2023-01-13T06:10:57;20.13;;;2.50;;
69627;SDS011;56850;51.984;5.088;2023-01-13T06:13:24;13.00;;;2.63;;
69627;SDS011;56850;51.984;5.088;2023-01-13T06:15:55;9.45;;;2.33;;
69627;SDS011;56850;51.984;5.088;2023-01-13T06:18:23;18.55;;;2.55;;
69627;SDS011;56850;51.984;5.088;2023-01-13T06:20:50;16.63;;;3.00;;
69627;SDS011;56850;51.984;5.088;2023-01-13T06:23:17;12.25;;;2.25;;
69627;SDS011;56850;51.984;5.088;2023-01-13T06:28:23;15.60;;;2.47;;
69627;SDS011;56850;51.984;5.088;2023-01-13T06:30:51;16.58;;;2.47;;
69627;SDS011;56850;51.984;5.088;2023-01-13T06:33:23;14.47;;;3.20;;
69627;SDS011;56850;51.984;5.088;2023-01-13T06:35:57;20.25;;;2.88;;
69627;SDS011;56850;51.984;5.088;2023-01-13T06:38:28;15.00;;;3.05;;
69627;SDS011;56850;51.984;5.088;2023-01-13T06:41:02;16.10;;;2.90;;
69627;SDS011;56850;51.984;5.088;2023-01-13T06:43:32;20.58;;;3.40;;
69627;SDS011;56850;51.984;5.088;2023-01-13T06:45:59;16.90;;;3.03;;
69627;SDS011;56850;51.984;5.088;2023-01-13T06:48:28;16.30;;;2.90;;
69627;SDS011;56850;51.984;5.088;2023-01-13T06:50:58;15.48;;;3.22;;
69627;SDS011;56850;51.984;5.088;2023-01-13T06:53:25;17.50;;;2.85;;
69627;SDS011;56850;51.984;5.088;2023-01-13T06:55:52;16.83;;;2.97;;
69627;SDS011;56850;51.984;5.088;2023-01-13T06:58:19;14.13;;;2.73;;
69627;SDS011;56850;51.984;5.088;2023-01-13T07:00:46;16.40;;;2.90;;
69627;SDS011;56850;51.984;5.088;2023-01-13T07:03:17;19.73;;;2.75;;
69627;SDS011;56850;51.984;5.088;2023-01-13T07:05:51;19.85;;;2.92;;
69627;SDS011;56850;51.984;5.088;2023-01-13T07:08:21;26.52;;;4.03;;
69627;SDS011;56850;51.984;5.088;2023-01-13T07:10:48;15.67;;;2.63;;
69627;SDS011;56850;51.984;5.088;2023-01-13T07:13:16;15.73;;;2.78;;
69627;SDS011;56850;51.984;5.088;2023-01-13T07:16:03;16.63;;;2.90;;
69627;SDS011;56850;51.984;5.088;2023-01-13T07:18:32;18.33;;;3.08;;
69627;SDS011;56850;51.984;5.088;2023-01-13T07:21:01;17.67;;;3.05;;
69627;SDS011;56850;51.984;5.088;2023-01-13T07:23:33;23.50;;;3.27;;
69627;SDS011;56850;51.984;5.088;2023-01-13T07:26:02;18.67;;;2.60;;
69627;SDS011;56850;51.984;5.088;2023-01-13T07:28:29;17.27;;;3.03;;
69627;SDS011;56850;51.984;5.088;2023-01-13T07:30:57;17.52;;;3.17;;
69627;SDS011;56850;51.984;5.088;2023-01-13T07:33:24;14.15;;;2.88;;
69627;SDS011;56850;51.984;5.088;2023-01-13T07:35:56;16.43;;;3.70;;
69627;SDS011;56850;51.984;5.088;2023-01-13T07:38:24;25.75;;;3.42;;
69627;SDS011;56850;51.984;5.088;2023-01-13T07:40:52;15.85;;;3.00;;
69627;SDS011;56850;51.984;5.088;2023-01-13T07:43:19;16.23;;;3.50;;
69627;SDS011;56850;51.984;5.088;2023-01-13T07:48:30;18.30;;;3.10;;
69627;SDS011;56850;51.984;5.088;2023-01-13T07:51:02;18.05;;;3.10;;
69627;SDS011;56850;51.984;5.088;2023-01-13T07:53:30;16.02;;;3.22;;
69627;SDS011;56850;51.984;5.088;2023-01-13T07:55:58;17.90;;;3.25;;
69627;SDS011;56850;51.984;5.088;2023-01-13T07:58:26;13.88;;;2.58;;
69627;SDS011;56850;51.984;5.088;2023-01-13T08:00:54;19.03;;;2.77;;
69627;SDS011;56850;51.984;5.088;2023-01-13T08:03:22;12.52;;;3.55;;
69627;SDS011;56850;51.984;5.088;2023-01-13T08:05:49;19.20;;;2.78;;
69627;SDS011;56850;51.984;5.088;2023-01-13T08:08:16;16.33;;;2.25;;
69627;SDS011;56850;51.984;5.088;2023-01-13T08:10:43;19.38;;;3.70;;
69627;SDS011;56850;51.984;5.088;2023-01-13T08:13:11;18.47;;;2.80;;
69627;SDS011;56850;51.984;5.088;2023-01-13T08:15:43;17.25;;;2.30;;
69627;SDS011;56850;51.984;5.088;2023-01-13T08:18:12;19.42;;;3.20;;
69627;SDS011;56850;51.984;5.088;2023-01-13T08:20:39;16.40;;;2.83;;
69627;SDS011;56850;51.984;5.088;2023-01-13T08:23:06;21.50;;;3.75;;
69627;SDS011;56850;51.984;5.088;2023-01-13T08:25:34;19.27;;;2.40;;
69627;SDS011;56850;51.984;5.088;2023-01-13T08:28:00;20.75;;;3.33;;
69627;SDS011;56850;51.984;5.088;2023-01-13T08:30:28;16.95;;;3.30;;
69627;SDS011;56850;51.984;5.088;2023-01-13T08:32:55;11.80;;;2.80;;
69627;SDS011;56850;51.984;5.088;2023-01-13T08:35:22;21.92;;;3.05;;
69627;SDS011;56850;51.984;5.088;2023-01-13T08:37:50;15.73;;;3.27;;
69627;SDS011;56850;51.984;5.088;2023-01-13T08:40:17;21.85;;;3.10;;
69627;SDS011;56850;51.984;5.088;2023-01-13T08:42:46;19.77;;;4.03;;
69627;SDS011;56850;51.984;5.088;2023-01-13T08:45:14;17.80;;;3.40;;
69627;SDS011;56850;51.984;5.088;2023-01-13T08:47:41;15.93;;;2.85;;
69627;SDS011;56850;51.984;5.088;2023-01-13T08:50:08;17.17;;;3.30;;
69627;SDS011;56850;51.984;5.088;2023-01-13T08:52:36;19.67;;;3.22;;
69627;SDS011;56850;51.984;5.088;2023-01-13T08:55:03;23.25;;;3.53;;
69627;SDS011;56850;51.984;5.088;2023-01-13T08:57:30;12.70;;;2.97;;
69627;SDS011;56850;51.984;5.088;2023-01-13T08:59:57;21.15;;;3.30;;
69627;SDS011;56850;51.984;5.088;2023-01-13T09:02:24;21.43;;;2.80;;
69627;SDS011;56850;51.984;5.088;2023-01-13T09:04:52;15.75;;;2.50;;
69627;SDS011;56850;51.984;5.088;2023-01-13T09:07:20;21.10;;;3.58;;
69627;SDS011;56850;51.984;5.088;2023-01-13T09:09:48;14.13;;;2.55;;
69627;SDS011;56850;51.984;5.088;2023-01-13T09:12:15;22.85;;;3.30;;
69627;SDS011;56850;51.984;5.088;2023-01-13T09:15:01;15.07;;;3.27;;
69627;SDS011;56850;51.984;5.088;2023-01-13T09:17:29;21.55;;;3.53;;
69627;SDS011;56850;51.984;5.088;2023-01-13T09:19:56;24.33;;;3.47;;
69627;SDS011;56850;51.984;5.088;2023-01-13T09:22:23;20.45;;;3.28;;
69627;SDS011;56850;51.984;5.088;2023-01-13T09:24:52;17.17;;;3.15;;
69627;SDS011;56850;51.984;5.088;2023-01-13T09:27:20;20.33;;;2.90;;
69627;SDS011;56850;51.984;5.088;2023-01-13T09:29:48;16.38;;;3.13;;
69627;SDS011;56850;51.984;5.088;2023-01-13T09:32:15;18.77;;;3.40;;
69627;SDS011;56850;51.984;5.088;2023-01-13T09:34:42;20.63;;;2.63;;
69627;SDS011;56850;51.984;5.088;2023-01-13T09:37:34;21.10;;;2.70;;
69627;SDS011;56850;51.984;5.088;2023-01-13T09:40:09;13.70;;;2.60;;
69627;SDS011;56850;51.984;5.088;2023-01-13T09:42:50;16.77;;;2.85;;
69627;SDS011;56850;51.984;5.088;2023-01-13T09:53:42;16.33;;;3.00;;
69627;SDS011;56850;51.984;5.088;2023-01-13T09:56:24;15.63;;;3.05;;
69627;SDS011;56850;51.984;5.088;2023-01-13T09:58:51;19.15;;;3.88;;
69627;SDS011;56850;51.984;5.088;2023-01-13T10:03:48;22.80;;;3.60;;
69627;SDS011;56850;51.984;5.088;2023-01-13T10:06:35;14.87;;;2.27;;
69627;SDS011;56850;51.984;5.088;2023-01-13T10:09:04;18.63;;;3.00;;
69627;SDS011;56850;51.984;5.088;2023-01-13T10:11:32;13.63;;;2.83;;
69627;SDS011;56850;51.984;5.088;2023-01-13T10:14:41;17.55;;;3.08;;
69627;SDS011;56850;51.984;5.088;2023-01-13T10:28:01;17.80;;;3.42;;
69627;SDS011;56850;51.984;5.088;2023-01-13T10:30:36;17.13;;;3.10;;
69627;SDS011;56850;51.984;5.088;2023-01-13T10:33:12;19.17;;;2.83;;
69627;SDS011;56850;51.984;5.088;2023-01-13T10:35:54;21.98;;;3.10;;
69627;SDS011;56850;51.984;5.088;2023-01-13T10:38:38;22.10;;;3.13;;
69627;SDS011;56850;51.984;5.088;2023-01-13T10:41:25;17.30;;;2.88;;
69627;SDS011;56850;51.984;5.088;2023-01-13T10:43:58;16.58;;;3.00;;
69627;SDS011;56850;51.984;5.088;2023-01-13T10:46:30;12.73;;;2.63;;
69627;SDS011;56850;51.984;5.088;2023-01-13T10:49:00;12.40;;;2.63;;
69627;SDS011;56850;51.984;5.088;2023-01-13T10:51:30;18.70;;;3.17;;
69627;SDS011;56850;51.984;5.088;2023-01-13T10:56:40;12.88;;;2.97;;
69627;SDS011;56850;51.984;5.088;2023-01-13T11:01:42;16.48;;;2.72;;
69627;SDS011;56850;51.984;5.088;2023-01-13T11:09:47;17.85;;;3.50;;
69627;SDS011;56850;51.984;5.088;2023-01-13T11:12:50;22.53;;;3.20;;
69627;SDS011;56850;51.984;5.088;2023-01-13T11:15:42;9.65;;;2.97;;
69627;SDS011;56850;51.984;5.088;2023-01-13T11:21:25;14.52;;;2.40;;
69627;SDS011;56850;51.984;5.088;2023-01-13T11:26:51;17.43;;;2.90;;
69627;SDS011;56850;51.984;5.088;2023-01-13T11:32:22;12.82;;;2.40;;
69627;SDS011;56850;51.984;5.088;2023-01-13T11:34:52;9.38;;;2.25;;
69627;SDS011;56850;51.984;5.088;2023-01-13T11:37:32;16.23;;;2.80;;
69627;SDS011;56850;51.984;5.088;2023-01-13T11:40:04;12.37;;;1.97;;
69627;SDS011;56850;51.984;5.088;2023-01-13T11:42:52;15.27;;;2.63;;
69627;SDS011;56850;51.984;5.088;2023-01-13T11:45:45;9.07;;;2.10;;
69627;SDS011;56850;51.984;5.088;2023-01-13T11:48:18;23.15;;;3.35;;
69627;SDS011;56850;51.984;5.088;2023-01-13T11:56:37;10.98;;;3.63;;
69627;SDS011;56850;51.984;5.088;2023-01-13T11:59:42;12.43;;;3.08;;
69627;SDS011;56850;51.984;5.088;2023-01-13T12:08:08;21.80;;;5.70;;
69627;SDS011;56850;51.984;5.088;2023-01-13T12:16:31;17.08;;;3.22;;
69627;SDS011;56850;51.984;5.088;2023-01-13T12:26:53;14.98;;;2.85;;
69627;SDS011;56850;51.984;5.088;2023-01-13T12:29:30;13.55;;;2.20;;
69627;SDS011;56850;51.984;5.088;2023-01-13T12:32:03;13.25;;;2.78;;
69627;SDS011;56850;51.984;5.088;2023-01-13T12:34:46;10.30;;;2.40;;
69627;SDS011;56850;51.984;5.088;2023-01-13T12:37:25;11.82;;;2.63;;
69627;SDS011;56850;51.984;5.088;2023-01-13T12:43:17;11.15;;;2.67;;
69627;SDS011;56850;51.984;5.088;2023-01-13T12:46:51;16.48;;;2.40;;
69627;SDS011;56850;51.984;5.088;2023-01-13T12:51:28;12.30;;;2.50;;
69627;SDS011;56850;51.984;5.088;2023-01-13T12:54:28;12.35;;;2.85;;
69627;SDS011;56850;51.984;5.088;2023-01-13T12:56:56;8.15;;;1.85;;
69627;SDS011;56850;51.984;5.088;2023-01-13T13:01:59;12.67;;;2.97;;
69627;SDS011;56850;51.984;5.088;2023-01-13T13:04:43;9.82;;;2.25;;
69627;SDS011;56850;51.984;5.088;2023-01-13T13:07:15;6.38;;;2.30;;
69627;SDS011;56850;51.984;5.088;2023-01-13T13:09:54;15.20;;;2.35;;
69627;SDS011;56850;51.984;5.088;2023-01-13T13:13:39;11.35;;;2.67;;
69627;SDS011;56850;51.984;5.088;2023-01-13T13:15:47;11.33;;;2.33;;
69627;SDS011;56850;51.984;5.088;2023-01-13T13:32:02;11.73;;;2.30;;
69627;SDS011;56850;51.984;5.088;2023-01-13T13:34:51;12.13;;;2.88;;
69627;SDS011;56850;51.984;5.088;2023-01-13T13:37:29;10.60;;;2.50;;
69627;SDS011;56850;51.984;5.088;2023-01-13T13:40:39;10.82;;;2.50;;
69627;SDS011;56850;51.984;5.088;2023-01-13T13:43:28;7.00;;;2.10;;
69627;SDS011;56850;51.984;5.088;2023-01-13T13:46:25;16.98;;;2.60;;
69627;SDS011;56850;51.984;5.088;2023-01-13T13:49:21;14.38;;;2.58;;
69627;SDS011;56850;51.984;5.088;2023-01-13T13:52:08;17.85;;;2.85;;
69627;SDS011;56850;51.984;5.088;2023-01-13T13:54:48;13.98;;;2.47;;
69627;SDS011;56850;51.984;5.088;2023-01-13T13:57:19;26.17;;;2.73;;
69627;SDS011;56850;51.984;5.088;2023-01-13T13:59:54;17.52;;;2.53;;
69627;SDS011;56850;51.984;5.088;2023-01-13T14:02:28;10.68;;;2.72;;
69627;SDS011;56850;51.984;5.088;2023-01-13T14:07:45;13.80;;;3.42;;
69627;SDS011;56850;51.984;5.088;2023-01-13T14:10:19;11.80;;;2.60;;
69627;SDS011;56850;51.984;5.088;2023-01-13T14:12:50;10.82;;;2.47;;
69627;SDS011;56850;51.984;5.088;2023-01-13T14:15:36;10.07;;;2.53;;
69627;SDS011;56850;51.984;5.088;2023-01-13T14:18:05;10.55;;;2.63;;
69627;SDS011;56850;51.984;5.088;2023-01-13T14:20:40;18.38;;;3.42;;
69627;SDS011;56850;51.984;5.088;2023-01-13T14:23:14;15.13;;;3.80;;
69627;SDS011;56850;51.984;5.088;2023-01-13T14:25:49;18.35;;;4.30;;
69627;SDS011;56850;51.984;5.088;2023-01-13T14:30:54;16.20;;;2.35;;
69627;SDS011;56850;51.984;5.088;2023-01-13T14:33:23;8.57;;;2.30;;
69627;SDS011;56850;51.984;5.088;2023-01-13T14:36:15;11.87;;;2.67;;
69627;SDS011;56850;51.984;5.088;2023-01-13T14:41:33;15.63;;;2.50;;
69627;SDS011;56850;51.984;5.088;2023-01-13T14:46:54;9.15;;;3.05;;
69627;SDS011;56850;51.984;5.088;2023-01-13T14:49:34;15.00;;;2.80;;
69627;SDS011;56850;51.984;5.088;2023-01-13T14:52:06;12.50;;;2.55;;
69627;SDS011;56850;51.984;5.088;2023-01-13T14:57:28;11.30;;;2.40;;
69627;SDS011;56850;51.984;5.088;2023-01-13T15:05:22;13.10;;;2.72;;
69627;SDS011;56850;51.984;5.088;2023-01-13T15:07:49;5.57;;;2.20;;
69627;SDS011;56850;51.984;5.088;2023-01-13T15:10:25;11.35;;;2.67;;
69627;SDS011;56850;51.984;5.088;2023-01-13T15:12:57;9.30;;;2.55;;
69627;SDS011;56850;51.984;5.088;2023-01-13T15:15:27;11.73;;;2.60;;
69627;SDS011;56850;51.984;5.088;2023-01-13T15:18:01;11.48;;;2.33;;
69627;SDS011;56850;51.984;5.088;2023-01-13T15:20:37;11.18;;;3.15;;
69627;SDS011;56850;51.984;5.088;2023-01-13T15:23:05;18.30;;;3.17;;
69627;SDS011;56850;51.984;5.088;2023-01-13T15:25:33;15.52;;;2.75;;
69627;SDS011;56850;51.984;5.088;2023-01-13T15:28:02;13.03;;;2.37;;
69627;SDS011;56850;51.984;5.088;2023-01-13T15:30:31;14.35;;;2.40;;
69627;SDS011;56850;51.984;5.088;2023-01-13T15:32:58;9.60;;;2.15;;
69627;SDS011;56850;51.984;5.088;2023-01-13T15:35:26;15.00;;;3.20;;
69627;SDS011;56850;51.984;5.088;2023-01-13T15:37:56;17.70;;;3.13;;
69627;SDS011;56850;51.984;5.088;2023-01-13T15:40:24;18.27;;;2.80;;
69627;SDS011;56850;51.984;5.088;2023-01-13T15:42:57;12.43;;;2.42;;
69627;SDS011;56850;51.984;5.088;2023-01-13T15:45:42;16.77;;;3.30;;
69627;SDS011;56850;51.984;5.088;2023-01-13T15:48:29;13.85;;;3.20;;
69627;SDS011;56850;51.984;5.088;2023-01-13T15:50:59;16.10;;;3.53;;
69627;SDS011;56850;51.984;5.088;2023-01-13T15:53:27;17.57;;;2.97;;
69627;SDS011;56850;51.984;5.088;2023-01-13T15:55:54;12.93;;;3.00;;
69627;SDS011;56850;51.984;5.088;2023-01-13T15:58:25;12.80;;;3.20;;
69627;SDS011;56850;51.984;5.088;2023-01-13T16:00:53;9.18;;;2.80;;
69627;SDS011;56850;51.984;5.088;2023-01-13T16:03:21;12.27;;;3.00;;
69627;SDS011;56850;51.984;5.088;2023-01-13T16:05:48;9.13;;;2.17;;
69627;SDS011;56850;51.984;5.088;2023-01-13T16:08:18;14.55;;;3.20;;
69627;SDS011;56850;51.984;5.088;2023-01-13T16:10:48;18.08;;;4.25;;
69627;SDS011;56850;51.984;5.088;2023-01-13T16:13:15;15.63;;;3.03;;
69627;SDS011;56850;51.984;5.088;2023-01-13T16:15:44;16.90;;;3.38;;
69627;SDS011;56850;51.984;5.088;2023-01-13T16:18:15;6.33;;;2.53;;
69627;SDS011;56850;51.984;5.088;2023-01-13T16:20:44;17.27;;;3.53;;
69627;SDS011;56850;51.984;5.088;2023-01-13T16:23:12;12.13;;;3.13;;
69627;SDS011;56850;51.984;5.088;2023-01-13T16:25:39;12.07;;;2.40;;
69627;SDS011;56850;51.984;5.088;2023-01-13T16:28:13;16.27;;;3.50;;
69627;SDS011;56850;51.984;5.088;2023-01-13T16:30:45;22.90;;;3.57;;
69627;SDS011;56850;51.984;5.088;2023-01-13T16:33:12;16.58;;;3.45;;
69627;SDS011;56850;51.984;5.088;2023-01-13T16:35:40;13.82;;;3.38;;
69627;SDS011;56850;51.984;5.088;2023-01-13T16:38:27;13.27;;;2.70;;
69627;SDS011;56850;51.984;5.088;2023-01-13T16:40:55;11.55;;;2.78;;
69627;SDS011;56850;51.984;5.088;2023-01-13T16:43:22;13.33;;;2.80;;
69627;SDS011;56850;51.984;5.088;2023-01-13T16:45:49;15.60;;;2.83;;
69627;SDS011;56850;51.984;5.088;2023-01-13T16:48:17;8.75;;;2.10;;
69627;SDS011;56850;51.984;5.088;2023-01-13T16:50:45;15.75;;;2.45;;
69627;SDS011;56850;51.984;5.088;2023-01-13T16:53:12;11.35;;;3.08;;
69627;SDS011;56850;51.984;5.088;2023-01-13T16:55:40;12.77;;;2.20;;
69627;SDS011;56850;51.984;5.088;2023-01-13T16:58:15;23.70;;;8.55;;
69627;SDS011;56850;51.984;5.088;2023-01-13T17:00:44;14.13;;;2.72;;
69627;SDS011;56850;51.984;5.088;2023-01-13T17:03:13;9.35;;;2.42;;
69627;SDS011;56850;51.984;5.088;2023-01-13T17:05:41;13.13;;;2.80;;
69627;SDS011;56850;51.984;5.088;2023-01-13T17:08:13;16.53;;;2.23;;
69627;SDS011;56850;51.984;5.088;2023-01-13T17:10:43;13.57;;;2.72;;
69627;SDS011;56850;51.984;5.088;2023-01-13T17:13:11;12.90;;;2.60;;
69627;SDS011;56850;51.984;5.088;2023-01-13T17:15:42;11.48;;;2.45;;
69627;SDS011;56850;51.984;5.088;2023-01-13T17:18:10;11.00;;;2.47;;
69627;SDS011;56850;51.984;5.088;2023-01-13T17:20:39;12.03;;;2.40;;
69627;SDS011;56850;51.984;5.088;2023-01-13T17:23:06;7.28;;;2.03;;
69627;SDS011;56850;51.984;5.088;2023-01-13T17:25:33;14.13;;;2.63;;
69627;SDS011;56850;51.984;5.088;2023-01-13T17:27:59;10.95;;;2.47;;
69627;SDS011;56850;51.984;5.088;2023-01-13T17:30:26;9.82;;;1.98;;
69627;SDS011;56850;51.984;5.088;2023-01-13T17:32:53;13.07;;;2.17;;
69627;SDS011;56850;51.984;5.088;2023-01-13T17:35:20;15.70;;;2.17;;
69627;SDS011;56850;51.984;5.088;2023-01-13T17:37:51;8.15;;;2.30;;